createdAt,value
2018-01-01T00:00:26.982Z,19.20
2018-01-01T00:01:30.311Z,16.80
2018-01-01T00:02:33.710Z,19.33
2018-01-01T00:03:37.864Z,18.67
2018-01-01T00:04:41.232Z,16.47
2018-01-01T00:05:44.637Z,13.43
2018-01-01T00:06:48.036Z,15.90
2018-01-01T00:07:51.397Z,13.60
2018-01-01T00:08:54.756Z,17.27
2018-01-01T00:09:58.125Z,14.43
2018-01-01T00:11:01.482Z,19.10
2018-01-01T00:12:04.852Z,12.47
2018-01-01T00:13:08.203Z,12.43
2018-01-01T00:14:12.337Z,10.07
2018-01-01T00:15:15.763Z,16.40
2018-01-01T00:16:19.124Z,11.53
2018-01-01T00:17:22.692Z,12.20
2018-01-01T00:18:26.925Z,13.03
2018-01-01T00:19:30.287Z,12.90
2018-01-01T00:20:34.412Z,10.33
2018-01-01T00:21:37.791Z,9.60
2018-01-01T00:22:41.140Z,11.17
2018-01-01T00:23:44.484Z,10.43
2018-01-01T00:24:47.909Z,10.20
2018-01-01T00:25:51.480Z,8.50
2018-01-01T00:26:55.037Z,10.57
2018-01-01T00:27:58.369Z,8.67
2018-01-01T00:29:01.724Z,10.30
2018-01-01T00:30:05.914Z,9.93
2018-01-01T00:31:09.268Z,9.63
2018-01-01T00:32:13.430Z,12.27
2018-01-01T00:33:16.764Z,10.97
2018-01-01T00:34:20.104Z,12.60
2018-01-01T00:35:23.447Z,9.53
2018-01-01T00:36:26.795Z,11.20
2018-01-01T00:37:30.217Z,9.53
2018-01-01T00:38:33.659Z,10.43
2018-01-01T00:39:36.974Z,10.87
2018-01-01T00:40:40.715Z,8.43
2018-01-01T00:41:44.070Z,10.57
2018-01-01T00:42:47.418Z,12.63
2018-01-01T00:43:50.805Z,11.53
2018-01-01T00:44:54.223Z,11.27
2018-01-01T00:45:57.618Z,11.07
2018-01-01T00:47:00.977Z,10.70
2018-01-01T00:48:05.132Z,11.97
2018-01-01T00:49:08.493Z,10.27
2018-01-01T00:50:11.871Z,10.30
2018-01-01T00:51:15.222Z,13.27
2018-01-01T00:52:18.561Z,10.50
2018-01-01T00:53:21.992Z,13.00
2018-01-01T00:54:25.430Z,12.70
2018-01-01T00:55:28.803Z,11.67
2018-01-01T00:56:32.143Z,10.67
2018-01-01T00:57:35.476Z,13.03
2018-01-01T00:58:38.864Z,12.37
2018-01-01T00:59:42.242Z,10.33
2018-01-01T01:00:45.566Z,12.33
2018-01-01T01:01:48.908Z,12.33
2018-01-01T01:02:53.165Z,11.33
2018-01-01T01:03:56.498Z,11.07
2018-01-01T01:04:59.917Z,11.60
2018-01-01T01:06:03.446Z,12.83
2018-01-01T01:07:06.867Z,12.07
2018-01-01T01:08:10.984Z,13.03
2018-01-01T01:09:14.388Z,13.00
2018-01-01T01:10:17.760Z,13.10
2018-01-01T01:11:21.135Z,11.63
2018-01-01T01:12:25.143Z,10.30
2018-01-01T01:13:28.488Z,11.40
2018-01-01T01:14:31.922Z,12.13
2018-01-01T01:15:35.257Z,14.57
2018-01-01T01:16:38.595Z,12.33
2018-01-01T01:17:41.938Z,14.13
2018-01-01T01:18:46.075Z,13.37
2018-01-01T01:19:50.197Z,12.97
2018-01-01T01:20:53.572Z,14.87
2018-01-01T01:21:56.904Z,15.67
2018-01-01T01:23:00.343Z,14.33
2018-01-01T01:24:03.856Z,17.37
2018-01-01T01:25:08.150Z,13.23
2018-01-01T01:26:11.477Z,13.80
2018-01-01T01:27:15.711Z,16.73
2018-01-01T01:28:19.806Z,14.40
2018-01-01T01:29:23.901Z,13.40
2018-01-01T01:30:28.128Z,13.53
2018-01-01T01:31:31.461Z,14.23
2018-01-01T01:32:34.812Z,13.87
2018-01-01T01:33:38.158Z,12.13
2018-01-01T01:34:41.580Z,12.77
2018-01-01T01:35:44.981Z,12.03
2018-01-01T01:36:48.316Z,10.30
2018-01-01T01:37:51.657Z,9.47
2018-01-01T01:38:55.025Z,11.60
2018-01-01T01:39:58.424Z,10.77
2018-01-01T01:41:01.771Z,10.13
2018-01-01T01:42:05.875Z,11.43
2018-01-01T01:43:10.008Z,11.57
2018-01-01T01:44:13.418Z,10.53
2018-01-01T01:45:16.781Z,8.57
2018-01-01T01:46:20.135Z,8.57
2018-01-01T01:47:24.231Z,9.80
2018-01-01T01:48:40.314Z,8.47
2018-01-01T01:49:43.667Z,7.90
2018-01-01T01:50:47.023Z,10.33
2018-01-01T01:51:50.396Z,7.20
2018-01-01T01:52:53.725Z,7.97
2018-01-01T01:53:57.065Z,9.53
2018-01-01T01:55:01.190Z,9.27
2018-01-01T01:56:04.580Z,9.17
2018-01-01T01:57:07.961Z,10.53
2018-01-01T01:58:11.428Z,8.87
2018-01-01T01:59:14.828Z,8.27
2018-01-01T02:00:18.154Z,7.70
2018-01-01T02:01:21.496Z,7.00
2018-01-01T02:02:24.851Z,9.20
2018-01-01T02:03:28.961Z,9.30
2018-01-01T02:04:33.056Z,7.87
2018-01-01T02:05:37.159Z,9.00
2018-01-01T02:06:41.307Z,8.37
2018-01-01T02:07:44.682Z,11.30
2018-01-01T02:08:48.012Z,9.80
2018-01-01T02:09:51.362Z,11.07
2018-01-01T02:10:54.689Z,10.60
2018-01-01T02:11:58.556Z,9.53
2018-01-01T02:13:01.913Z,9.90
2018-01-01T02:14:05.243Z,12.43
2018-01-01T02:15:08.586Z,10.93
2018-01-01T02:16:11.977Z,12.80
2018-01-01T02:17:15.353Z,11.93
2018-01-01T02:18:18.723Z,11.17
2018-01-01T02:19:22.827Z,10.37
2018-01-01T02:20:26.955Z,10.43
2018-01-01T02:21:30.292Z,11.40
2018-01-01T02:22:33.622Z,10.53
2018-01-01T02:23:37.004Z,11.03
2018-01-01T02:24:40.352Z,12.90
2018-01-01T02:25:43.688Z,11.47
2018-01-01T02:26:47.011Z,9.83
2018-01-01T02:27:50.344Z,18.00
2018-01-01T02:28:53.710Z,15.47
2018-01-01T02:29:57.936Z,11.27
2018-01-01T02:31:01.289Z,14.20
2018-01-01T02:32:16.580Z,13.10
2018-01-01T02:33:20.689Z,13.40
2018-01-01T02:34:24.823Z,15.63
2018-01-01T02:35:28.154Z,13.47
2018-01-01T02:36:31.496Z,16.10
2018-01-01T02:37:34.853Z,15.13
2018-01-01T02:38:38.257Z,18.53
2018-01-01T02:39:41.620Z,17.00
2018-01-01T02:40:44.970Z,15.87
2018-01-01T02:41:48.314Z,16.33
2018-01-01T02:42:51.652Z,17.27
2018-01-01T02:43:55.182Z,20.30
2018-01-01T02:44:58.542Z,18.77
2018-01-01T02:46:02.648Z,17.13
2018-01-01T02:47:06.742Z,18.13
2018-01-01T02:48:10.862Z,20.73
2018-01-01T02:49:14.209Z,21.70
2018-01-01T02:50:17.573Z,18.23
2018-01-01T02:51:20.909Z,17.77
2018-01-01T02:52:25.020Z,18.03
2018-01-01T02:53:29.144Z,20.20
2018-01-01T02:54:32.484Z,17.37
2018-01-01T02:55:35.848Z,18.70
2018-01-01T02:56:39.190Z,17.40
2018-01-01T02:57:42.599Z,16.07
2018-01-01T02:58:45.931Z,17.87
2018-01-01T02:59:50.038Z,20.53
2018-01-01T03:00:54.166Z,16.87
2018-01-01T03:01:58.432Z,15.90
2018-01-01T03:03:01.773Z,14.53
2018-01-01T03:04:05.154Z,15.90
2018-01-01T03:05:08.554Z,14.63
2018-01-01T03:06:11.894Z,12.60
2018-01-01T03:07:15.994Z,12.50
2018-01-01T03:08:20.100Z,12.23
2018-01-01T03:09:24.219Z,13.23
2018-01-01T03:10:27.561Z,13.87
2018-01-01T03:11:31.008Z,13.27
2018-01-01T03:12:34.347Z,14.47
2018-01-01T03:13:37.767Z,12.07
2018-01-01T03:14:41.096Z,13.07
2018-01-01T03:15:44.514Z,11.50
2018-01-01T03:16:47.874Z,14.10
2018-01-01T03:17:51.220Z,12.33
2018-01-01T03:18:54.670Z,12.20
2018-01-01T03:19:57.982Z,12.87
2018-01-01T03:21:01.319Z,9.67
2018-01-01T03:22:04.675Z,12.83
2018-01-01T03:23:08.002Z,12.17
2018-01-01T03:24:11.441Z,12.67
2018-01-01T03:25:14.759Z,11.90
2018-01-01T03:26:18.169Z,12.57
2018-01-01T03:27:21.520Z,15.00
2018-01-01T03:28:24.842Z,15.47
2018-01-01T03:29:28.277Z,12.70
2018-01-01T03:30:31.644Z,13.60
2018-01-01T03:31:34.985Z,13.17
2018-01-01T03:32:38.331Z,14.90
2018-01-01T03:33:41.666Z,12.00
2018-01-01T03:34:44.984Z,14.23
2018-01-01T03:35:48.314Z,14.27
2018-01-01T03:36:51.656Z,16.60
2018-01-01T03:37:55.008Z,14.30
2018-01-01T03:38:58.355Z,14.07
2018-01-01T03:40:01.680Z,11.57
2018-01-01T03:41:05.196Z,12.73
2018-01-01T03:42:08.588Z,11.10
2018-01-01T03:43:11.961Z,11.13
2018-01-01T03:44:16.072Z,15.93
2018-01-01T03:45:20.163Z,13.63
2018-01-01T03:46:24.291Z,12.10
2018-01-01T03:47:27.611Z,14.67
2018-01-01T03:48:31.067Z,12.47
2018-01-01T03:49:34.409Z,11.60
2018-01-01T03:50:37.740Z,11.33
2018-01-01T03:51:41.078Z,12.03
2018-01-01T03:52:44.600Z,11.90
2018-01-01T03:53:47.959Z,10.53
2018-01-01T03:54:52.063Z,11.43
2018-01-01T03:55:55.478Z,11.23
2018-01-01T03:56:58.819Z,11.00
2018-01-01T03:58:02.216Z,12.70
2018-01-01T03:59:05.626Z,10.83
2018-01-01T04:00:09.724Z,8.00
2018-01-01T04:01:13.820Z,11.20
2018-01-01T04:02:17.947Z,12.33
2018-01-01T04:03:21.286Z,12.87
2018-01-01T04:04:24.718Z,14.50
2018-01-01T04:05:28.091Z,16.37
2018-01-01T04:06:32.191Z,11.93
2018-01-01T04:07:36.287Z,11.80
2018-01-01T04:08:40.383Z,9.87
2018-01-01T04:09:43.759Z,9.70
2018-01-01T04:10:47.091Z,9.90
2018-01-01T04:11:50.412Z,9.47
2018-01-01T04:12:53.738Z,9.57
2018-01-01T04:13:57.161Z,11.87
2018-01-01T04:15:00.619Z,10.00
2018-01-01T04:16:04.928Z,10.63
2018-01-01T04:17:08.241Z,8.97
2018-01-01T04:18:11.566Z,9.90
2018-01-01T04:19:14.930Z,9.53
2018-01-01T04:20:18.389Z,12.23
2018-01-01T04:21:21.715Z,7.80
2018-01-01T04:22:25.057Z,6.07
2018-01-01T04:23:28.380Z,8.47
2018-01-01T04:24:31.718Z,7.00
2018-01-01T04:25:35.078Z,7.40
2018-01-01T04:26:38.509Z,10.00
2018-01-01T04:27:41.931Z,10.40
2018-01-01T04:28:45.279Z,7.60
2018-01-01T04:29:48.617Z,6.03
2018-01-01T04:30:52.057Z,7.27
2018-01-01T04:31:55.384Z,8.50
2018-01-01T04:32:58.804Z,8.60
2018-01-01T04:34:02.934Z,7.83
2018-01-01T04:35:06.234Z,11.00
2018-01-01T04:36:09.587Z,5.60
2018-01-01T04:37:12.919Z,6.93
2018-01-01T04:38:16.243Z,7.03
2018-01-01T04:39:20.344Z,10.03
2018-01-01T04:40:23.673Z,5.43
2018-01-01T04:41:27.302Z,8.33
2018-01-01T04:42:30.662Z,6.60
2018-01-01T04:43:34.230Z,5.00
2018-01-01T04:44:37.560Z,6.70
2018-01-01T04:45:40.905Z,5.20
2018-01-01T04:46:44.276Z,8.47
2018-01-01T04:47:47.648Z,8.50
2018-01-01T04:48:51.735Z,5.93
2018-01-01T04:49:55.830Z,8.97
2018-01-01T04:50:59.256Z,7.27
2018-01-01T04:52:02.594Z,5.83
2018-01-01T04:54:15.546Z,8.40
2018-01-01T04:55:19.600Z,5.93
2018-01-01T04:56:22.924Z,9.70
2018-01-01T04:57:27.040Z,7.63
2018-01-01T04:58:30.366Z,7.07
2018-01-01T04:59:33.730Z,7.33
2018-01-01T05:00:37.053Z,7.50
2018-01-01T05:01:40.375Z,7.23
2018-01-01T05:02:44.478Z,5.67
2018-01-01T05:03:47.808Z,5.83
2018-01-01T05:04:51.258Z,6.73
2018-01-01T05:05:54.582Z,5.00
2018-01-01T05:06:57.924Z,5.93
2018-01-01T05:08:01.280Z,7.17
2018-01-01T05:09:04.627Z,6.43
2018-01-01T05:10:07.956Z,5.47
2018-01-01T05:11:11.289Z,5.90
2018-01-01T05:12:14.730Z,6.73
2018-01-01T05:13:18.082Z,6.50
2018-01-01T05:14:21.394Z,7.80
2018-01-01T05:15:24.728Z,5.97
2018-01-01T05:16:28.096Z,6.50
2018-01-01T05:17:31.429Z,6.67
2018-01-01T05:18:34.970Z,6.47
2018-01-01T05:19:38.311Z,5.97
2018-01-01T05:20:41.742Z,8.43
2018-01-01T05:21:45.139Z,5.37
2018-01-01T05:22:48.528Z,10.30
2018-01-01T05:23:52.031Z,4.63
2018-01-01T05:24:55.352Z,4.90
2018-01-01T05:25:59.134Z,4.57
2018-01-01T05:27:02.456Z,5.23
2018-01-01T05:28:06.542Z,6.47
2018-01-01T05:29:09.886Z,5.23
2018-01-01T05:30:13.295Z,5.07
2018-01-01T05:31:16.615Z,4.90
2018-01-01T05:32:20.699Z,4.13
2018-01-01T05:33:24.139Z,8.17
2018-01-01T05:34:27.503Z,6.93
2018-01-01T05:35:30.912Z,4.93
2018-01-01T05:36:34.395Z,5.57
2018-01-01T05:37:37.726Z,5.07
2018-01-01T05:38:41.055Z,3.20
2018-01-01T05:39:44.552Z,8.63
2018-01-01T05:40:47.918Z,5.83
2018-01-01T05:41:52.125Z,5.23
2018-01-01T05:42:56.214Z,6.37
2018-01-01T05:44:00.353Z,7.67
2018-01-01T05:45:03.828Z,6.80
2018-01-01T05:46:07.167Z,3.90
2018-01-01T05:47:10.497Z,6.33
2018-01-01T05:48:13.823Z,7.10
2018-01-01T05:49:17.156Z,6.07
2018-01-01T05:50:20.554Z,5.17
2018-01-01T05:51:24.139Z,6.37
2018-01-01T05:52:27.451Z,6.20
2018-01-01T05:53:30.816Z,4.03
2018-01-01T05:54:34.168Z,4.97
2018-01-01T05:55:37.520Z,8.47
2018-01-01T05:56:40.848Z,5.00
2018-01-01T05:57:44.184Z,4.33
2018-01-01T05:58:47.550Z,5.67
2018-01-01T05:59:50.934Z,13.43
2018-01-01T06:00:54.303Z,10.27
2018-01-01T06:01:58.401Z,12.33
2018-01-01T06:03:02.487Z,7.67
2018-01-01T06:04:05.815Z,6.03
2018-01-01T06:05:09.299Z,5.13
2018-01-01T06:06:12.685Z,8.13
2018-01-01T06:07:15.969Z,5.77
2018-01-01T06:08:19.372Z,4.97
2018-01-01T06:09:22.948Z,11.77
2018-01-01T06:10:26.349Z,6.93
2018-01-01T06:11:29.686Z,5.57
2018-01-01T06:12:33.827Z,23.03
2018-01-01T06:13:37.234Z,17.27
2018-01-01T06:14:40.642Z,19.77
2018-01-01T06:15:43.976Z,18.30
2018-01-01T06:16:47.357Z,5.97
2018-01-01T06:17:50.694Z,6.33
2018-01-01T06:18:54.027Z,6.00
2018-01-01T06:19:57.359Z,5.43
2018-01-01T06:21:01.507Z,5.43
2018-01-01T06:22:05.178Z,6.10
2018-01-01T06:23:08.738Z,3.93
2018-01-01T06:24:12.393Z,4.20
2018-01-01T06:25:16.471Z,7.37
2018-01-01T06:26:20.129Z,4.90
2018-01-01T06:27:23.736Z,7.83
2018-01-01T06:28:27.135Z,3.33
2018-01-01T06:29:30.475Z,5.60
2018-01-01T06:30:33.800Z,3.90
2018-01-01T06:31:39.112Z,5.37
2018-01-01T06:32:43.353Z,4.57
2018-01-01T06:33:47.470Z,4.77
2018-01-01T06:34:51.587Z,4.10
2018-01-01T06:35:55.062Z,4.90
2018-01-01T06:36:59.187Z,5.33
2018-01-01T06:38:02.574Z,4.60
2018-01-01T06:39:05.911Z,5.07
2018-01-01T06:40:09.244Z,6.17
2018-01-01T06:41:12.617Z,4.57
2018-01-01T06:42:16.244Z,4.43
2018-01-01T06:43:20.414Z,3.20
2018-01-01T06:44:24.084Z,3.40
2018-01-01T06:45:27.480Z,2.80
2018-01-01T06:46:31.587Z,6.53
2018-01-01T06:47:35.822Z,4.70
2018-01-01T06:48:39.151Z,4.37
2018-01-01T06:49:42.535Z,3.63
2018-01-01T06:50:45.941Z,4.73
2018-01-01T06:51:49.352Z,3.77
2018-01-01T06:52:52.694Z,2.63
2018-01-01T06:53:56.133Z,5.60
2018-01-01T06:54:59.457Z,4.27
2018-01-01T06:56:02.895Z,4.87
2018-01-01T06:57:06.479Z,6.27
2018-01-01T06:58:10.588Z,2.83
2018-01-01T06:59:14.801Z,5.13
2018-01-01T07:00:18.126Z,4.10
2018-01-01T07:01:21.519Z,4.40
2018-01-01T07:02:24.848Z,3.63
2018-01-01T07:03:28.946Z,5.07
2018-01-01T07:04:33.489Z,9.60
2018-01-01T07:05:36.810Z,4.30
2018-01-01T07:06:40.259Z,6.47
2018-01-01T07:07:43.571Z,4.57
2018-01-01T07:08:46.902Z,5.63
2018-01-01T07:09:51.027Z,4.37
2018-01-01T07:10:54.474Z,4.97
2018-01-01T07:11:57.797Z,3.60
2018-01-01T07:13:01.136Z,3.57
2018-01-01T07:14:04.447Z,5.50
2018-01-01T07:15:08.574Z,5.83
2018-01-01T07:16:11.897Z,6.73
2018-01-01T07:17:15.353Z,5.17
2018-01-01T07:18:18.704Z,7.93
2018-01-01T07:19:22.797Z,2.80
2018-01-01T07:20:26.139Z,5.63
2018-01-01T07:21:29.455Z,6.10
2018-01-01T07:22:32.777Z,3.23
2018-01-01T07:23:36.103Z,4.80
2018-01-01T07:24:39.570Z,4.83
2018-01-01T07:25:42.904Z,4.20
2018-01-01T07:26:46.237Z,8.53
2018-01-01T07:27:49.582Z,3.00
2018-01-01T07:28:53.689Z,3.40
2018-01-01T07:29:57.034Z,5.90
2018-01-01T07:31:00.404Z,4.93
2018-01-01T07:32:03.824Z,3.63
2018-01-01T07:33:07.175Z,3.10
2018-01-01T07:34:10.505Z,4.07
2018-01-01T07:35:13.928Z,6.10
2018-01-01T07:36:17.289Z,5.70
2018-01-01T07:37:20.624Z,5.10
2018-01-01T07:38:24.034Z,4.83
2018-01-01T07:39:27.373Z,3.40
2018-01-01T07:40:30.734Z,5.17
2018-01-01T07:41:34.075Z,5.20
2018-01-01T07:42:37.400Z,3.07
2018-01-01T07:43:41.500Z,4.50
2018-01-01T07:44:45.023Z,3.43
2018-01-01T07:45:48.359Z,4.20
2018-01-01T07:46:52.594Z,3.17
2018-01-01T07:47:56.701Z,6.07
2018-01-01T07:49:00.819Z,4.83
2018-01-01T07:50:04.148Z,3.23
2018-01-01T07:51:07.474Z,4.97
2018-01-01T07:52:10.831Z,4.23
2018-01-01T07:53:14.149Z,4.70
2018-01-01T07:54:17.495Z,3.43
2018-01-01T07:55:20.826Z,6.03
2018-01-01T07:56:24.280Z,2.03
2018-01-01T07:57:27.630Z,5.80
2018-01-01T07:58:30.972Z,3.43
2018-01-01T07:59:34.442Z,6.00
2018-01-01T08:00:38.495Z,4.43
2018-01-01T08:01:41.825Z,5.80
2018-01-01T08:02:45.164Z,2.77
2018-01-01T08:03:48.508Z,3.27
2018-01-01T08:04:52.319Z,7.20
2018-01-01T08:05:56.411Z,2.43
2018-01-01T08:07:00.508Z,4.17
2018-01-01T08:08:03.861Z,5.33
2018-01-01T08:09:07.183Z,4.93
2018-01-01T08:10:11.295Z,3.50
2018-01-01T08:11:15.390Z,3.67
2018-01-01T08:12:19.492Z,6.57
2018-01-01T08:13:22.842Z,5.33
2018-01-01T08:14:26.171Z,4.43
2018-01-01T08:15:30.266Z,5.53
2018-01-01T08:16:34.399Z,3.93
2018-01-01T08:17:37.922Z,3.67
2018-01-01T08:18:41.392Z,5.03
2018-01-01T08:19:44.832Z,6.87
2018-01-01T08:20:48.249Z,5.23
2018-01-01T08:21:51.567Z,5.87
2018-01-01T08:22:54.899Z,9.17
2018-01-01T08:23:59.030Z,4.50
2018-01-01T08:25:02.362Z,3.30
2018-01-01T08:26:05.671Z,4.93
2018-01-01T08:27:09.500Z,4.97
2018-01-01T08:28:12.833Z,4.60
2018-01-01T08:29:16.265Z,6.60
2018-01-01T08:30:19.684Z,7.70
2018-01-01T08:31:23.015Z,6.67
2018-01-01T08:32:26.420Z,4.53
2018-01-01T08:33:29.769Z,7.43
2018-01-01T08:34:33.307Z,8.37
2018-01-01T08:35:36.622Z,8.67
2018-01-01T08:36:39.979Z,4.07
2018-01-01T08:37:43.387Z,8.87
2018-01-01T08:38:46.712Z,8.43
2018-01-01T08:39:52.160Z,7.50
2018-01-01T08:40:56.230Z,7.57
2018-01-01T08:41:59.664Z,8.20
2018-01-01T08:43:02.984Z,5.90
2018-01-01T08:44:07.170Z,9.10
2018-01-01T08:45:10.530Z,5.33
2018-01-01T08:46:13.906Z,9.77
2018-01-01T08:47:17.195Z,8.73
2018-01-01T08:48:20.525Z,4.27
2018-01-01T08:49:23.845Z,4.97
2018-01-01T08:50:27.303Z,5.23
2018-01-01T08:51:30.644Z,5.60
2018-01-01T08:52:34.028Z,5.00
2018-01-01T08:53:37.425Z,3.37
2018-01-01T08:54:40.755Z,2.47
2018-01-01T08:55:44.160Z,2.97
2018-01-01T08:56:47.497Z,2.70
2018-01-01T08:57:50.923Z,1.97
2018-01-01T08:58:54.257Z,4.00
2018-01-01T08:59:57.590Z,2.80
2018-01-01T09:01:01.028Z,2.47
2018-01-01T09:02:04.355Z,4.03
2018-01-01T09:03:07.684Z,3.73
2018-01-01T09:04:11.776Z,4.33
2018-01-01T09:05:15.103Z,2.27
2018-01-01T09:06:18.445Z,1.73
2018-01-01T09:07:22.540Z,3.73
2018-01-01T09:08:26.701Z,3.20
2018-01-01T09:09:30.059Z,3.37
2018-01-01T09:10:33.446Z,1.80
2018-01-01T09:11:37.032Z,1.93
2018-01-01T09:12:41.159Z,1.50
2018-01-01T09:13:44.693Z,1.97
2018-01-01T09:14:48.120Z,3.50
2018-01-01T09:15:51.502Z,3.23
2018-01-01T09:16:54.955Z,2.70
2018-01-01T09:17:58.291Z,2.60
2018-01-01T09:19:01.616Z,1.57
2018-01-01T09:20:05.048Z,2.87
2018-01-01T09:21:08.367Z,1.10
2018-01-01T09:22:11.718Z,2.53
2018-01-01T09:23:15.296Z,1.57
2018-01-01T09:24:19.386Z,3.30
2018-01-01T09:25:22.815Z,2.77
2018-01-01T09:26:26.288Z,3.57
2018-01-01T09:27:29.764Z,3.43
2018-01-01T09:28:33.944Z,2.40
2018-01-01T09:29:37.561Z,3.20
2018-01-01T09:30:42.052Z,2.27
2018-01-01T09:31:45.421Z,4.40
2018-01-01T09:32:48.780Z,4.90
2018-01-01T09:33:52.102Z,1.60
2018-01-01T09:34:55.481Z,3.33
2018-01-01T09:35:59.013Z,2.13
2018-01-01T09:37:02.369Z,2.87
2018-01-01T09:38:06.091Z,4.53
2018-01-01T09:39:09.420Z,3.20
2018-01-01T09:40:12.739Z,3.97
2018-01-01T09:41:16.830Z,5.00
2018-01-01T09:42:20.367Z,4.30
2018-01-01T09:43:25.058Z,4.73
2018-01-01T09:44:29.191Z,2.57
2018-01-01T09:45:32.511Z,3.00
2018-01-01T09:46:35.842Z,4.40
2018-01-01T09:47:39.250Z,4.10
2018-01-01T09:48:42.592Z,5.67
2018-01-01T09:49:46.476Z,4.43
2018-01-01T09:50:49.788Z,5.53
2018-01-01T09:51:53.876Z,3.77
2018-01-01T09:52:57.216Z,4.87
2018-01-01T09:54:00.674Z,4.50
2018-01-01T09:55:04.794Z,4.80
2018-01-01T09:56:08.129Z,3.83
2018-01-01T09:57:11.543Z,4.83
2018-01-01T09:58:15.630Z,4.00
2018-01-01T09:59:19.025Z,4.17
2018-01-01T10:00:22.350Z,2.73
2018-01-01T10:01:25.678Z,5.23
2018-01-01T10:02:29.024Z,4.93
2018-01-01T10:03:32.351Z,4.43
2018-01-01T10:04:35.776Z,3.13
2018-01-01T10:05:39.156Z,6.93
2018-01-01T10:06:42.490Z,5.70
2018-01-01T10:07:45.822Z,4.20
2018-01-01T10:08:50.031Z,4.93
2018-01-01T10:09:53.389Z,3.70
2018-01-01T10:10:56.740Z,6.07
2018-01-01T10:12:00.071Z,4.33
2018-01-01T10:13:04.186Z,3.33
2018-01-01T10:14:08.280Z,6.77
2018-01-01T10:15:12.503Z,8.33
2018-01-01T10:16:15.855Z,6.63
2018-01-01T10:17:19.252Z,3.83
2018-01-01T10:18:23.482Z,3.33
2018-01-01T10:19:26.831Z,5.20
2018-01-01T10:20:30.181Z,3.40
2018-01-01T10:21:33.517Z,5.97
2018-01-01T10:22:37.743Z,4.97
2018-01-01T10:23:41.151Z,5.03
2018-01-01T10:24:44.508Z,4.03
2018-01-01T10:25:48.612Z,4.77
2018-01-01T10:26:52.051Z,6.17
2018-01-01T10:27:55.385Z,4.93
2018-01-01T10:28:58.706Z,5.77
2018-01-01T10:30:02.061Z,5.47
2018-01-01T10:31:06.319Z,7.70
2018-01-01T10:32:09.630Z,5.00
2018-01-01T10:33:13.764Z,5.20
2018-01-01T10:34:17.168Z,4.77
2018-01-01T10:35:20.518Z,4.00
2018-01-01T10:36:24.737Z,5.00
2018-01-01T10:37:28.115Z,4.63
2018-01-01T10:38:31.444Z,5.93
2018-01-01T10:39:34.821Z,6.07
2018-01-01T10:40:38.222Z,4.73
2018-01-01T10:41:41.556Z,7.87
2018-01-01T10:42:44.954Z,4.10
2018-01-01T10:43:48.309Z,7.67
2018-01-01T10:44:51.624Z,8.23
2018-01-01T10:45:54.958Z,5.47
2018-01-01T10:46:58.299Z,4.37
2018-01-01T10:48:01.682Z,5.37
2018-01-01T10:49:05.123Z,7.00
2018-01-01T10:50:08.450Z,4.93
2018-01-01T10:51:11.795Z,5.10
2018-01-01T10:52:15.138Z,5.40
2018-01-01T10:53:18.562Z,5.37
2018-01-01T10:54:22.008Z,5.13
2018-01-01T10:55:25.354Z,7.03
2018-01-01T10:56:28.698Z,6.40
2018-01-01T10:57:32.039Z,5.50
2018-01-01T10:58:36.140Z,6.33
2018-01-01T10:59:40.273Z,7.20
2018-01-01T11:00:43.584Z,9.47
2018-01-01T11:01:46.915Z,6.00
2018-01-01T11:02:51.040Z,5.53
2018-01-01T11:03:54.424Z,6.03
2018-01-01T11:04:57.747Z,6.17
2018-01-01T11:06:01.169Z,7.50
2018-01-01T11:07:04.527Z,6.10
2018-01-01T11:08:07.912Z,4.27
2018-01-01T11:09:11.259Z,5.23
2018-01-01T11:10:14.625Z,5.83
2018-01-01T11:11:18.030Z,4.40
2018-01-01T11:12:21.397Z,6.30
2018-01-01T11:13:25.523Z,7.97
2018-01-01T11:14:28.895Z,5.10
2018-01-01T11:15:32.237Z,6.93
2018-01-01T11:16:35.676Z,4.73
2018-01-01T11:17:39.500Z,4.27
2018-01-01T11:18:42.866Z,4.70
2018-01-01T11:19:46.182Z,7.13
2018-01-01T11:20:49.531Z,4.27
2018-01-01T11:21:52.872Z,6.27
2018-01-01T11:22:56.195Z,7.27
2018-01-01T11:23:59.541Z,6.67
2018-01-01T11:25:02.968Z,3.67
2018-01-01T11:26:06.293Z,5.93
2018-01-01T11:27:09.624Z,4.63
2018-01-01T11:28:13.094Z,7.93
2018-01-01T11:29:17.375Z,4.53
2018-01-01T11:30:20.708Z,11.63
2018-01-01T11:31:24.056Z,6.27
2018-01-01T11:32:27.389Z,5.83
2018-01-01T11:33:30.719Z,6.27
2018-01-01T11:34:34.080Z,4.30
2018-01-01T11:35:37.390Z,3.57
2018-01-01T11:36:40.827Z,4.60
2018-01-01T11:37:44.170Z,6.00
2018-01-01T11:38:47.486Z,3.47
2018-01-01T11:39:51.664Z,3.37
2018-01-01T11:40:54.974Z,5.17
2018-01-01T11:41:59.074Z,6.20
2018-01-01T11:43:03.194Z,5.93
2018-01-01T11:44:06.703Z,4.83
2018-01-01T11:45:10.055Z,5.97
2018-01-01T11:46:13.455Z,5.17
2018-01-01T11:47:16.809Z,7.03
2018-01-01T11:48:20.148Z,6.13
2018-01-01T11:49:23.515Z,5.17
2018-01-01T11:50:26.880Z,5.40
2018-01-01T11:51:30.218Z,7.07
2018-01-01T11:52:33.581Z,9.07
2018-01-01T11:53:36.905Z,6.07
2018-01-01T11:54:41.055Z,3.17
2018-01-01T11:55:44.547Z,6.23
2018-01-01T11:56:48.637Z,4.13
2018-01-01T11:57:52.737Z,5.03
2018-01-01T11:58:56.848Z,6.30
2018-01-01T12:00:01.061Z,6.43
2018-01-01T12:01:04.454Z,6.90
2018-01-01T12:02:07.936Z,5.07
2018-01-01T12:03:11.265Z,6.57
2018-01-01T12:04:14.714Z,4.70
2018-01-01T12:05:18.093Z,4.70
2018-01-01T12:06:21.435Z,4.30
2018-01-01T12:07:24.877Z,7.23
2018-01-01T12:08:28.245Z,12.80
2018-01-01T12:09:31.635Z,9.83
2018-01-01T12:10:34.975Z,4.80
2018-01-01T12:11:38.322Z,6.33
2018-01-01T12:12:41.642Z,4.63
2018-01-01T12:13:44.973Z,8.97
2018-01-01T12:14:49.052Z,3.27
2018-01-01T12:15:52.380Z,8.63
2018-01-01T12:16:55.748Z,8.87
2018-01-01T12:17:59.834Z,5.10
2018-01-01T12:19:03.928Z,4.73
2018-01-01T12:20:07.332Z,5.73
2018-01-01T12:21:11.410Z,6.30
2018-01-01T12:22:14.785Z,7.17
2018-01-01T12:23:18.218Z,9.10
2018-01-01T12:24:21.609Z,3.97
2018-01-01T12:25:24.972Z,4.87
2018-01-01T12:26:29.105Z,6.10
2018-01-01T12:27:32.476Z,4.63
2018-01-01T12:28:36.563Z,5.60
2018-01-01T12:29:40.677Z,6.40
2018-01-01T12:30:44.816Z,5.57
2018-01-01T12:31:48.114Z,3.17
2018-01-01T12:32:51.483Z,6.93
2018-01-01T12:33:54.813Z,3.23
2018-01-01T12:34:58.153Z,5.63
2018-01-01T12:36:01.475Z,5.63
2018-01-01T12:37:04.819Z,6.37
2018-01-01T12:38:08.192Z,3.70
2018-01-01T12:39:11.578Z,5.07
2018-01-01T12:40:14.923Z,2.77
2018-01-01T12:41:18.446Z,4.53
2018-01-01T12:42:22.547Z,2.97
2018-01-01T12:43:26.006Z,3.73
2018-01-01T12:44:29.363Z,2.90
2018-01-01T12:45:32.703Z,8.00
2018-01-01T12:46:36.893Z,5.70
2018-01-01T12:47:40.316Z,7.63
2018-01-01T12:48:43.700Z,3.70
2018-01-01T12:49:47.043Z,4.93
2018-01-01T12:50:50.434Z,2.47
2018-01-01T12:51:54.527Z,2.07
2018-01-01T12:52:57.870Z,2.47
2018-01-01T12:54:01.288Z,3.13
2018-01-01T12:55:04.627Z,7.93
2018-01-01T12:56:08.016Z,2.40
2018-01-01T12:57:11.348Z,1.83
2018-01-01T12:58:14.684Z,2.47
2018-01-01T12:59:18.093Z,1.93
2018-01-01T13:00:21.427Z,4.30
2018-01-01T13:01:24.871Z,2.83
2018-01-01T13:02:28.217Z,2.47
2018-01-01T13:03:31.619Z,2.20
2018-01-01T13:04:34.990Z,3.53
2018-01-01T13:05:39.078Z,2.43
2018-01-01T13:06:43.207Z,2.77
2018-01-01T13:07:46.554Z,3.73
2018-01-01T13:08:49.997Z,2.77
2018-01-01T13:09:53.359Z,2.50
2018-01-01T13:10:57.452Z,4.33
2018-01-01T13:12:01.594Z,3.40
2018-01-01T13:13:04.935Z,3.27
2018-01-01T13:14:08.268Z,4.63
2018-01-01T13:15:12.547Z,5.83
2018-01-01T13:16:17.727Z,4.23
2018-01-01T13:17:21.219Z,2.73
2018-01-01T13:18:24.574Z,4.53
2018-01-01T13:19:27.920Z,3.93
2018-01-01T13:20:32.038Z,3.10
2018-01-01T13:21:35.386Z,4.37
2018-01-01T13:22:38.709Z,4.00
2018-01-01T13:23:42.049Z,4.10
2018-01-01T13:24:45.476Z,4.87
2018-01-01T13:25:49.782Z,4.30
2018-01-01T13:26:53.891Z,5.00
2018-01-01T13:27:57.229Z,4.93
2018-01-01T13:29:00.569Z,4.43
2018-01-01T13:30:03.909Z,3.17
2018-01-01T13:31:07.344Z,4.20
2018-01-01T13:32:11.387Z,2.20
2018-01-01T13:33:14.738Z,3.50
2018-01-01T13:34:18.072Z,2.23
2018-01-01T13:35:21.396Z,3.00
2018-01-01T13:36:24.759Z,3.73
2018-01-01T13:37:28.161Z,3.43
2018-01-01T13:38:32.472Z,2.20
2018-01-01T13:39:35.828Z,2.80
2018-01-01T13:40:39.257Z,3.37
2018-01-01T13:41:42.637Z,4.07
2018-01-01T13:42:45.990Z,2.63
2018-01-01T13:43:49.332Z,3.10
2018-01-01T13:44:52.705Z,3.10
2018-01-01T13:45:56.056Z,4.60
2018-01-01T13:46:59.410Z,3.50
2018-01-01T13:48:02.757Z,3.47
2018-01-01T13:49:06.096Z,3.20
2018-01-01T13:50:09.431Z,3.43
2018-01-01T13:51:12.795Z,2.87
2018-01-01T13:52:16.215Z,3.57
2018-01-01T13:53:19.558Z,4.07
2018-01-01T13:54:23.652Z,2.97
2018-01-01T13:55:26.984Z,2.90
2018-01-01T13:56:30.325Z,4.67
2018-01-01T13:57:33.662Z,4.77
2018-01-01T13:58:36.996Z,5.27
2018-01-01T13:59:41.144Z,4.43